Mayo, Maryland
Current Conditions -  °F | °C
As of 12:54 AM on Wednesday 28 Jan 2015 (Local Time) from KNAK Reporting Station
Clear Clear  
Wind Chill: 17°   Ceiling: Unl
Heat Index: 29°   Visibility: 10mi
Dew Point: 14°   Wind: 16mph
Humidity: 54%   Direction: 320°NW
Pressure: 29.98"   Gusts: 26mph
Location:  38.89°N, 76.51°W
Report Text: KNAK 280554Z AUTO 32014G23KT 10SM CLR M02/M10 A2998 RMK AO2 SLP152 T10171100 10000 21017 51022
Loading
Personal Weather Stations






























Interactive Weather Map New forecast layout! Learn more

10-Day Weather Forecast

Advertisements
Track Severe Weather on mobile